createdAt,value
2023-03-29T00:00:22.393Z,69.75
2023-03-29T00:05:49.073Z,69.81
2023-03-29T00:10:59.475Z,69.89
2023-03-29T00:16:07.963Z,69.58
2023-03-29T00:21:14.285Z,69.95
2023-03-29T00:26:22.146Z,69.56
2023-03-29T00:31:29.831Z,69.59
2023-03-29T00:36:36.645Z,69.98
2023-03-29T00:41:45.745Z,70.09
2023-03-29T00:46:52.517Z,70.31
2023-03-29T00:51:59.362Z,70.41
2023-03-29T00:57:09.769Z,70.07
2023-03-29T01:02:18.283Z,70.44
2023-03-29T01:07:28.709Z,70.50
2023-03-29T01:12:42.825Z,70.32
2023-03-29T01:17:51.077Z,70.57
2023-03-29T01:23:19.486Z,70.66
2023-03-29T01:28:33.432Z,70.68
2023-03-29T01:33:45.524Z,71.14
2023-03-29T01:38:57.573Z,71.54
2023-03-29T01:44:11.008Z,72.04
2023-03-29T01:49:24.984Z,72.15
2023-03-29T01:54:37.115Z,72.26
2023-03-29T01:59:48.943Z,72.53
2023-03-29T02:04:57.838Z,73.31
2023-03-29T02:10:05.436Z,73.29
2023-03-29T02:15:19.561Z,73.92
2023-03-29T02:20:32.320Z,74.17
2023-03-29T02:25:38.963Z,74.23
2023-03-29T02:30:53.808Z,74.20
2023-03-29T02:36:05.136Z,74.64
2023-03-29T02:42:30.817Z,75.19
2023-03-29T02:47:45.870Z,75.27
2023-03-29T02:52:59.629Z,75.63
2023-03-29T02:58:08.949Z,76.09
2023-03-29T03:03:18.383Z,76.22
2023-03-29T03:08:28.309Z,76.28
2023-03-29T03:13:34.870Z,76.37
2023-03-29T03:18:43.414Z,76.30
2023-03-29T03:23:50.715Z,77.04
2023-03-29T03:28:57.561Z,76.77
2023-03-29T03:34:26.590Z,76.60
2023-03-29T03:39:37.098Z,76.80
2023-03-29T03:44:45.817Z,76.88
2023-03-29T03:50:14.401Z,77.11
2023-03-29T03:55:22.373Z,77.32
2023-03-29T04:00:31.940Z,77.09
2023-03-29T04:06:05.307Z,77.54
2023-03-29T04:11:32.273Z,77.61
2023-03-29T04:16:38.824Z,77.32
2023-03-29T04:22:09.737Z,77.67
2023-03-29T04:27:16.895Z,77.42
2023-03-29T04:32:25.667Z,77.71
2023-03-29T04:37:40.645Z,78.05
2023-03-29T04:42:50.105Z,78.39
2023-03-29T04:48:03.125Z,78.30
2023-03-29T04:53:11.777Z,78.67
2023-03-29T04:58:20.773Z,78.66
2023-03-29T05:03:29.628Z,78.56
2023-03-29T05:08:42.878Z,78.56
2023-03-29T05:14:02.755Z,79.00
2023-03-29T05:19:13.377Z,78.96
2023-03-29T05:24:26.643Z,78.92
2023-03-29T05:29:37.091Z,78.22
2023-03-29T05:35:07.416Z,77.72
2023-03-29T05:40:16.484Z,77.69
2023-03-29T05:45:45.093Z,76.97
2023-03-29T05:50:56.565Z,77.06
2023-03-29T05:56:05.512Z,76.63
2023-03-29T06:01:14.898Z,75.89
2023-03-29T06:06:34.348Z,75.50
2023-03-29T06:11:42.522Z,75.40
2023-03-29T06:17:02.080Z,75.50
2023-03-29T06:22:08.564Z,75.79
2023-03-29T06:27:16.361Z,75.52
2023-03-29T06:32:23.744Z,74.69
2023-03-29T06:37:36.774Z,74.52
2023-03-29T06:42:59.743Z,75.11
2023-03-29T06:48:24.752Z,74.78
2023-03-29T06:53:31.739Z,74.28
2023-03-29T06:58:42.996Z,73.94
2023-03-29T07:04:09.703Z,73.97
2023-03-29T07:09:36.254Z,73.79
2023-03-29T07:15:13.730Z,73.60
2023-03-29T07:20:47.932Z,73.40
2023-03-29T07:25:54.810Z,73.58
2023-03-29T07:31:07.764Z,73.07
2023-03-29T07:36:19.989Z,73.09
2023-03-29T07:41:26.998Z,72.68
2023-03-29T07:46:53.109Z,72.52
2023-03-29T07:51:59.997Z,71.57
2023-03-29T07:57:07.145Z,71.19
2023-03-29T08:02:21.461Z,70.63
2023-03-29T08:07:31.278Z,70.15
2023-03-29T08:12:40.579Z,69.18
2023-03-29T08:17:48.970Z,67.91
2023-03-29T08:22:57.557Z,67.64
2023-03-29T08:28:29.964Z,66.97
2023-03-29T08:33:38.726Z,64.47
2023-03-29T08:39:08.336Z,62.08
2023-03-29T08:44:25.501Z,61.67
2023-03-29T08:49:42.275Z,60.35
2023-03-29T08:54:54.303Z,59.00
2023-03-29T09:00:19.504Z,56.75
2023-03-29T09:05:32.232Z,55.07
2023-03-29T09:10:57.646Z,53.29
2023-03-29T09:16:14.128Z,52.55
2023-03-29T09:21:35.487Z,51.01
2023-03-29T09:26:48.365Z,50.81
2023-03-29T09:32:24.092Z,51.25
2023-03-29T09:37:42.119Z,52.08
2023-03-29T09:42:54.016Z,53.75
2023-03-29T09:48:08.422Z,54.43
2023-03-29T09:53:19.006Z,53.37
2023-03-29T09:58:36.324Z,54.44
2023-03-29T10:03:44.010Z,52.55
2023-03-29T10:08:59.246Z,52.13
2023-03-29T10:14:19.503Z,53.03
2023-03-29T10:19:31.328Z,52.48
2023-03-29T10:24:39.320Z,52.05
2023-03-29T10:29:47.133Z,51.44
2023-03-29T10:34:54.630Z,51.06
2023-03-29T10:40:02.768Z,50.54
2023-03-29T10:45:27.483Z,50.08
2023-03-29T10:50:38.432Z,50.12
2023-03-29T10:55:57.705Z,49.68
2023-03-29T11:01:05.722Z,48.59
2023-03-29T11:06:25.024Z,49.09
2023-03-29T11:12:14.464Z,47.08
2023-03-29T11:17:39.830Z,48.26
2023-03-29T11:22:57.724Z,45.96
2023-03-29T11:28:15.652Z,47.23
2023-03-29T11:33:48.852Z,47.38
2023-03-29T11:39:06.182Z,46.53
2023-03-29T11:44:21.431Z,47.51
2023-03-29T11:49:33.837Z,45.76
2023-03-29T11:54:45.216Z,45.47
2023-03-29T12:00:00.830Z,45.42
2023-03-29T12:05:18.324Z,46.25
2023-03-29T12:10:28.649Z,46.83
2023-03-29T12:15:43.002Z,47.25
2023-03-29T12:20:55.229Z,45.09
2023-03-29T12:26:12.361Z,47.33
2023-03-29T12:31:29.467Z,46.46
2023-03-29T12:37:22.329Z,45.86
2023-03-29T12:42:49.746Z,44.40
2023-03-29T12:48:21.083Z,45.94
2023-03-29T12:53:33.382Z,43.12
2023-03-29T12:59:08.529Z,44.35
2023-03-29T13:04:20.821Z,42.91
2023-03-29T13:09:30.221Z,45.34
2023-03-29T13:14:39.408Z,44.36
2023-03-29T13:19:51.078Z,39.94
2023-03-29T13:25:25.657Z,41.70
2023-03-29T13:30:47.511Z,42.33
2023-03-29T13:36:05.094Z,43.00
2023-03-29T13:41:30.265Z,42.00
2023-03-29T13:46:43.215Z,42.61
2023-03-29T13:52:16.718Z,41.40
2023-03-29T13:57:27.668Z,41.70
2023-03-29T14:02:42.481Z,42.47
2023-03-29T14:07:55.067Z,40.95
2023-03-29T14:13:04.356Z,42.14
2023-03-29T14:18:12.524Z,44.42
2023-03-29T14:23:24.470Z,43.83
2023-03-29T14:28:31.552Z,46.08
2023-03-29T14:33:38.474Z,46.49
2023-03-29T14:38:50.353Z,44.35
2023-03-29T14:43:57.866Z,44.62
2023-03-29T14:49:06.602Z,45.61
2023-03-29T14:54:22.428Z,44.76
2023-03-29T14:59:36.971Z,44.57
2023-03-29T15:04:43.931Z,43.96
2023-03-29T15:09:52.127Z,44.58
2023-03-29T15:14:58.826Z,43.54
2023-03-29T15:20:14.368Z,45.30
2023-03-29T15:25:23.674Z,46.73
2023-03-29T15:30:39.659Z,46.76
2023-03-29T15:35:52.235Z,44.79
2023-03-29T15:41:00.867Z,43.85
2023-03-29T15:46:08.684Z,43.07
2023-03-29T15:51:15.940Z,42.70
2023-03-29T15:56:23.982Z,44.17
2023-03-29T16:01:36.072Z,46.26
2023-03-29T16:06:43.763Z,46.18
2023-03-29T16:11:52.427Z,44.35
2023-03-29T16:16:59.651Z,45.87
2023-03-29T16:22:07.747Z,45.43
2023-03-29T16:27:15.669Z,45.50
2023-03-29T16:32:22.437Z,46.08
2023-03-29T16:37:29.114Z,46.36
2023-03-29T16:42:37.938Z,45.60
2023-03-29T16:47:46.121Z,46.17
2023-03-29T16:52:52.978Z,46.31
2023-03-29T16:58:01.126Z,45.63
2023-03-29T17:03:08.447Z,46.25
2023-03-29T17:08:16.376Z,47.15
2023-03-29T17:13:24.648Z,48.30
2023-03-29T17:18:32.009Z,48.82
2023-03-29T17:23:39.323Z,49.78
2023-03-29T17:28:49.908Z,50.94
2023-03-29T17:33:57.233Z,52.14
2023-03-29T17:39:10.032Z,54.42
2023-03-29T17:44:19.191Z,54.64
2023-03-29T17:49:28.113Z,55.32
2023-03-29T17:54:36.509Z,55.49
2023-03-29T17:59:45.858Z,57.24
2023-03-29T18:04:54.163Z,57.87
2023-03-29T18:10:03.321Z,58.34
2023-03-29T18:15:14.968Z,59.15
2023-03-29T18:20:24.604Z,60.09
2023-03-29T18:25:32.608Z,60.43
2023-03-29T18:30:43.738Z,61.37
2023-03-29T18:35:53.445Z,61.01
2023-03-29T18:41:02.296Z,60.14
2023-03-29T18:46:15.078Z,60.72
2023-03-29T18:51:24.637Z,61.56
2023-03-29T18:56:34.868Z,61.27
2023-03-29T19:01:46.565Z,61.87
2023-03-29T19:06:56.487Z,62.92
2023-03-29T19:12:06.580Z,61.74
2023-03-29T19:17:17.787Z,61.18
2023-03-29T19:22:26.766Z,62.75
2023-03-29T19:27:37.584Z,63.13
2023-03-29T19:32:49.629Z,63.24
2023-03-29T19:38:02.338Z,63.15
2023-03-29T19:43:18.407Z,62.75
2023-03-29T19:48:30.484Z,62.25
2023-03-29T19:53:41.897Z,62.37
2023-03-29T19:58:50.010Z,62.97
2023-03-29T20:04:00.179Z,63.30
2023-03-29T20:09:09.594Z,63.80
2023-03-29T20:14:17.935Z,64.03
2023-03-29T20:19:30.630Z,62.86
2023-03-29T20:24:38.581Z,62.57
2023-03-29T20:29:46.188Z,63.09
2023-03-29T20:34:54.640Z,62.88
2023-03-29T20:40:01.208Z,62.95
2023-03-29T20:45:18.899Z,63.70
2023-03-29T20:50:27.898Z,64.11
2023-03-29T20:55:35.691Z,63.35
2023-03-29T21:00:42.778Z,64.71
2023-03-29T21:05:55.053Z,65.22
2023-03-29T21:11:02.670Z,65.01
2023-03-29T21:16:11.161Z,64.53
2023-03-29T21:21:19.649Z,65.15
2023-03-29T21:26:26.744Z,65.84
2023-03-29T21:31:33.696Z,65.67
2023-03-29T21:36:42.817Z,66.62
2023-03-29T21:41:48.918Z,66.93
2023-03-29T21:46:55.642Z,67.23
2023-03-29T21:52:04.010Z,67.89
2023-03-29T21:57:10.691Z,68.27
2023-03-29T22:02:17.830Z,67.87
2023-03-29T22:07:25.835Z,68.23
2023-03-29T22:12:34.798Z,68.45
2023-03-29T22:17:43.116Z,68.58
2023-03-29T22:22:52.584Z,68.73
2023-03-29T22:27:59.079Z,68.38
2023-03-29T22:33:05.616Z,68.43
2023-03-29T22:38:13.666Z,68.04
2023-03-29T22:43:20.343Z,69.11
2023-03-29T22:48:27.088Z,68.77
2023-03-29T22:53:35.564Z,68.30
2023-03-29T22:58:42.106Z,67.89
2023-03-29T23:03:50.054Z,67.08
2023-03-29T23:08:58.106Z,66.89
2023-03-29T23:14:05.494Z,66.28
2023-03-29T23:19:12.217Z,66.36
2023-03-29T23:24:20.139Z,67.79
2023-03-29T23:29:26.652Z,67.57
2023-03-29T23:34:33.546Z,67.28
2023-03-29T23:39:41.985Z,67.33
2023-03-29T23:44:48.660Z,66.83
2023-03-29T23:49:55.351Z,67.15
2023-03-29T23:55:03.446Z,67.08
